createdAt,value
2018-03-23T00:00:39.688Z,45.67
2018-03-23T00:01:39.695Z,45.7
2018-03-23T00:02:39.721Z,45.68
2018-03-23T00:03:39.685Z,45.65
2018-03-23T00:04:39.709Z,45.68
2018-03-23T00:05:39.684Z,45.66
2018-03-23T00:06:39.694Z,45.65
2018-03-23T00:07:39.966Z,45.69
2018-03-23T00:08:39.737Z,45.67
2018-03-23T00:09:39.686Z,45.64
2018-03-23T00:10:39.684Z,45.66
2018-03-23T00:11:39.710Z,45.65
2018-03-23T00:12:39.708Z,45.65
2018-03-23T00:13:39.686Z,45.66
2018-03-23T00:14:39.796Z,45.66
2018-03-23T00:15:39.707Z,45.64
2018-03-23T00:16:39.692Z,45.66
2018-03-23T00:17:39.683Z,45.63
2018-03-23T00:18:39.710Z,45.64
2018-03-23T00:19:39.709Z,45.66
2018-03-23T00:20:39.672Z,45.64
2018-03-23T00:21:39.703Z,45.61
2018-03-23T00:22:39.698Z,45.65
2018-03-23T00:23:39.694Z,45.63
2018-03-23T00:24:39.660Z,45.64
2018-03-23T00:25:39.665Z,45.66
2018-03-23T00:26:39.671Z,45.64
2018-03-23T00:27:39.681Z,45.64
2018-03-23T00:28:39.668Z,45.67
2018-03-23T00:29:39.688Z,45.63
2018-03-23T00:30:39.693Z,45.62
2018-03-23T00:31:39.946Z,45.64
2018-03-23T00:32:39.676Z,45.61
2018-03-23T00:33:39.713Z,45.63
2018-03-23T00:34:39.699Z,45.64
2018-03-23T00:35:39.661Z,45.61
2018-03-23T00:36:39.689Z,45.61
2018-03-23T00:37:39.671Z,45.65
2018-03-23T00:38:39.662Z,45.61
2018-03-23T00:39:39.653Z,45.6
2018-03-23T00:40:39.663Z,45.65
2018-03-23T00:41:39.683Z,45.62
2018-03-23T00:42:39.711Z,45.6
2018-03-23T00:43:39.663Z,45.63
2018-03-23T00:44:39.673Z,45.61
2018-03-23T00:45:39.677Z,45.59
2018-03-23T00:46:39.700Z,45.6
2018-03-23T00:47:39.703Z,45.6
2018-03-23T00:48:39.673Z,45.6
2018-03-23T00:49:39.702Z,45.62
2018-03-23T00:50:39.693Z,45.59
2018-03-23T00:51:39.702Z,45.58
2018-03-23T00:52:39.707Z,45.59
2018-03-23T00:53:39.666Z,45.59
2018-03-23T00:54:39.673Z,45.57
2018-03-23T00:55:39.664Z,45.61
2018-03-23T00:56:39.680Z,45.57
2018-03-23T00:57:39.669Z,45.55
2018-03-23T00:58:39.687Z,45.58
2018-03-23T00:59:39.685Z,45.53
2018-03-23T01:00:39.682Z,45.54
2018-03-23T01:01:39.688Z,45.55
2018-03-23T01:02:39.665Z,45.53
2018-03-23T01:03:39.689Z,45.56
2018-03-23T01:04:39.645Z,45.59
2018-03-23T01:05:39.680Z,45.57
2018-03-23T01:06:39.690Z,45.59
2018-03-23T01:07:39.663Z,45.6
2018-03-23T01:08:39.662Z,45.58
2018-03-23T01:09:39.681Z,45.55
2018-03-23T01:10:39.686Z,45.56
2018-03-23T01:11:39.672Z,45.54
2018-03-23T01:12:39.686Z,45.56
2018-03-23T01:13:39.697Z,45.6
2018-03-23T01:14:39.690Z,45.55
2018-03-23T01:15:39.631Z,45.56
2018-03-23T01:16:39.666Z,45.59
2018-03-23T01:17:39.647Z,45.54
2018-03-23T01:18:39.664Z,45.55
2018-03-23T01:19:39.667Z,45.58
2018-03-23T01:20:39.660Z,45.56
2018-03-23T01:21:39.675Z,45.55
2018-03-23T01:22:39.679Z,45.58
2018-03-23T01:23:39.671Z,45.55
2018-03-23T01:24:39.641Z,45.55
2018-03-23T01:25:39.679Z,45.56
2018-03-23T01:26:39.672Z,45.56
2018-03-23T01:27:39.662Z,45.54
2018-03-23T01:28:39.626Z,45.55
2018-03-23T01:29:39.664Z,45.53
2018-03-23T01:30:39.661Z,45.53
2018-03-23T01:31:39.653Z,45.56
2018-03-23T01:32:39.674Z,45.53
2018-03-23T01:33:39.678Z,45.53
2018-03-23T01:34:39.653Z,45.57
2018-03-23T01:35:39.654Z,45.53
2018-03-23T01:36:39.636Z,45.52
2018-03-23T01:37:39.717Z,45.55
2018-03-23T01:38:39.661Z,45.53
2018-03-23T01:39:39.657Z,45.51
2018-03-23T01:40:39.672Z,45.54
2018-03-23T01:41:39.656Z,45.52
2018-03-23T01:42:39.682Z,45.51
2018-03-23T01:43:39.661Z,45.54
2018-03-23T01:44:39.659Z,45.52
2018-03-23T01:45:39.662Z,45.53
2018-03-23T01:46:39.666Z,45.55
2018-03-23T01:47:39.639Z,45.52
2018-03-23T01:48:39.654Z,45.52
2018-03-23T01:49:39.671Z,45.53
2018-03-23T01:50:39.662Z,45.49
2018-03-23T01:51:39.664Z,45.49
2018-03-23T01:52:39.647Z,45.52
2018-03-23T01:53:39.672Z,45.5
2018-03-23T01:54:39.647Z,45.49
2018-03-23T01:55:39.900Z,45.5
2018-03-23T01:56:39.668Z,45.5
2018-03-23T01:57:39.664Z,45.48
2018-03-23T01:58:39.632Z,45.52
2018-03-23T01:59:39.639Z,45.51
2018-03-23T02:00:39.692Z,45.51
2018-03-23T02:01:39.667Z,45.51
2018-03-23T02:02:39.660Z,45.47
2018-03-23T02:03:39.638Z,45.49
2018-03-23T02:04:39.667Z,45.53
2018-03-23T02:05:39.648Z,45.48
2018-03-23T02:06:39.660Z,45.47
2018-03-23T02:07:39.675Z,45.51
2018-03-23T02:08:39.643Z,45.48
2018-03-23T02:09:39.640Z,45.48
2018-03-23T02:10:39.644Z,45.51
2018-03-23T02:11:39.634Z,45.47
2018-03-23T02:12:39.644Z,45.47
2018-03-23T02:13:39.672Z,45.5
2018-03-23T02:14:39.837Z,45.47
2018-03-23T02:15:39.757Z,45.47
2018-03-23T02:16:39.653Z,45.49
2018-03-23T02:17:39.659Z,45.46
2018-03-23T02:18:39.647Z,45.47
2018-03-23T02:19:39.632Z,45.49
2018-03-23T02:20:39.632Z,45.46
2018-03-23T02:21:39.655Z,45.45
2018-03-23T02:22:39.642Z,45.48
2018-03-23T02:23:39.638Z,45.47
2018-03-23T02:24:39.633Z,45.46
2018-03-23T02:25:39.633Z,45.49
2018-03-23T02:26:39.639Z,45.47
2018-03-23T02:27:39.654Z,45.46
2018-03-23T02:28:39.635Z,45.48
2018-03-23T02:29:39.614Z,45.44
2018-03-23T02:30:39.685Z,45.45
2018-03-23T02:31:39.632Z,45.49
2018-03-23T02:32:39.632Z,45.46
2018-03-23T02:33:39.630Z,45.46
2018-03-23T02:34:39.658Z,45.47
2018-03-23T02:35:39.636Z,45.46
2018-03-23T02:36:39.629Z,45.46
2018-03-23T02:37:39.635Z,45.48
2018-03-23T02:38:39.640Z,45.43
2018-03-23T02:39:39.646Z,45.43
2018-03-23T02:40:39.656Z,45.47
2018-03-23T02:41:39.644Z,45.44
2018-03-23T02:42:39.666Z,45.43
2018-03-23T02:43:39.654Z,45.45
2018-03-23T02:44:39.631Z,45.41
2018-03-23T02:45:39.657Z,45.41
2018-03-23T02:46:39.647Z,45.45
2018-03-23T02:47:39.643Z,45.41
2018-03-23T02:48:39.661Z,45.42
2018-03-23T02:49:39.690Z,45.45
2018-03-23T02:50:39.646Z,45.43
2018-03-23T02:51:39.640Z,45.41
2018-03-23T02:52:39.646Z,45.44
2018-03-23T02:53:39.638Z,45.44
2018-03-23T02:54:39.656Z,45.42
2018-03-23T02:55:39.647Z,45.45
2018-03-23T02:56:39.628Z,45.41
2018-03-23T02:57:39.624Z,45.4
2018-03-23T02:58:39.621Z,45.44
2018-03-23T02:59:39.665Z,45.41
2018-03-23T03:00:39.620Z,45.41
2018-03-23T03:01:39.626Z,45.42
2018-03-23T03:02:39.630Z,45.38
2018-03-23T03:03:39.598Z,45.41
2018-03-23T03:04:39.690Z,45.44
2018-03-23T03:05:39.623Z,45.42
2018-03-23T03:06:39.644Z,45.41
2018-03-23T03:07:39.638Z,45.45
2018-03-23T03:08:39.619Z,45.4
2018-03-23T03:09:39.673Z,45.4
2018-03-23T03:10:39.632Z,45.43
2018-03-23T03:11:39.639Z,45.39
2018-03-23T03:12:39.636Z,45.37
2018-03-23T03:13:39.634Z,45.41
2018-03-23T03:14:39.640Z,45.4
2018-03-23T03:15:39.692Z,45.4
2018-03-23T03:16:39.620Z,45.41
2018-03-23T03:17:39.617Z,45.38
2018-03-23T03:18:39.639Z,45.36
2018-03-23T03:19:39.642Z,45.4
2018-03-23T03:20:39.635Z,45.37
2018-03-23T03:21:39.479Z,45.38
2018-03-23T03:22:39.631Z,45.4
2018-03-23T03:23:39.632Z,45.37
2018-03-23T03:24:39.641Z,45.38
2018-03-23T03:25:39.788Z,45.42
2018-03-23T03:26:39.627Z,45.4
2018-03-23T03:27:39.653Z,45.38
2018-03-23T03:28:39.616Z,45.41
2018-03-23T03:29:39.628Z,45.37
2018-03-23T03:30:39.630Z,45.35
2018-03-23T03:31:39.632Z,45.38
2018-03-23T03:32:39.601Z,45.38
2018-03-23T03:33:39.605Z,45.38
2018-03-23T03:34:39.633Z,45.41
2018-03-23T03:35:39.645Z,45.38
2018-03-23T03:36:39.594Z,45.38
2018-03-23T03:37:39.633Z,45.39
2018-03-23T03:38:39.646Z,45.36
2018-03-23T03:39:39.608Z,45.34
2018-03-23T03:40:39.634Z,45.39
2018-03-23T03:41:39.605Z,45.36
2018-03-23T03:42:39.603Z,45.36
2018-03-23T03:43:39.635Z,45.39
2018-03-23T03:44:39.606Z,45.36
2018-03-23T03:45:39.632Z,45.37
2018-03-23T03:46:39.630Z,45.39
2018-03-23T03:47:39.666Z,45.35
2018-03-23T03:48:39.599Z,45.37
2018-03-23T03:49:39.652Z,45.37
2018-03-23T03:50:39.634Z,45.35
2018-03-23T03:51:39.598Z,45.34
2018-03-23T03:52:39.596Z,45.37
2018-03-23T03:53:39.621Z,45.36
2018-03-23T03:54:39.609Z,45.34
2018-03-23T03:55:39.621Z,45.4
2018-03-23T03:56:39.602Z,45.35
2018-03-23T03:57:39.610Z,45.34
2018-03-23T03:58:39.626Z,45.38
2018-03-23T03:59:39.598Z,45.34
2018-03-23T04:00:39.622Z,45.33
2018-03-23T04:01:39.593Z,45.37
2018-03-23T04:02:39.633Z,45.34
2018-03-23T04:03:39.627Z,45.35
2018-03-23T04:04:39.610Z,45.35
2018-03-23T04:05:39.576Z,45.31
2018-03-23T04:06:39.608Z,45.32
2018-03-23T04:07:39.626Z,45.36
2018-03-23T04:08:39.657Z,45.33
2018-03-23T04:09:39.613Z,45.33
2018-03-23T04:10:39.624Z,45.36
2018-03-23T04:11:39.573Z,45.36
2018-03-23T04:12:39.653Z,45.33
2018-03-23T04:13:39.626Z,45.36
2018-03-23T04:14:39.614Z,45.33
2018-03-23T04:15:39.628Z,45.32
2018-03-23T04:16:39.686Z,45.35
2018-03-23T04:17:39.610Z,45.32
2018-03-23T04:18:39.606Z,45.33
2018-03-23T04:19:39.638Z,45.35
2018-03-23T04:20:39.611Z,45.32
2018-03-23T04:21:39.595Z,45.31
2018-03-23T04:22:39.619Z,45.34
2018-03-23T04:23:39.607Z,45.33
2018-03-23T04:24:39.599Z,45.31
2018-03-23T04:25:39.588Z,45.33
2018-03-23T04:26:39.563Z,45.32
2018-03-23T04:27:39.589Z,45.29
2018-03-23T04:28:39.601Z,45.35
2018-03-23T04:29:39.584Z,45.31
2018-03-23T04:30:39.611Z,45.31
2018-03-23T04:31:39.615Z,45.33
2018-03-23T04:32:39.595Z,45.3
2018-03-23T04:33:39.626Z,45.29
2018-03-23T04:34:39.609Z,45.32
2018-03-23T04:35:39.594Z,45.29
2018-03-23T04:36:39.639Z,45.29
2018-03-23T04:37:39.634Z,45.31
2018-03-23T04:38:39.602Z,45.31
2018-03-23T04:39:39.654Z,45.3
2018-03-23T04:40:39.597Z,45.31
2018-03-23T04:41:39.635Z,45.3
2018-03-23T04:42:39.624Z,45.29
2018-03-23T04:43:39.615Z,45.34
2018-03-23T04:44:39.602Z,45.31
2018-03-23T04:45:39.600Z,45.3
2018-03-23T04:46:39.614Z,45.31
2018-03-23T04:47:39.599Z,45.28
2018-03-23T04:48:39.585Z,45.28
2018-03-23T04:49:39.599Z,45.32
2018-03-23T04:50:39.597Z,45.3
2018-03-23T04:51:39.579Z,45.28
2018-03-23T04:52:39.607Z,45.32
2018-03-23T04:53:39.602Z,45.27
2018-03-23T04:54:39.603Z,45.28
2018-03-23T04:55:39.577Z,45.31
2018-03-23T04:56:39.596Z,45.27
2018-03-23T04:57:39.614Z,45.27
2018-03-23T04:58:39.584Z,45.31
2018-03-23T04:59:39.588Z,45.29
2018-03-23T05:00:39.582Z,45.29
2018-03-23T05:01:39.605Z,45.32
2018-03-23T05:02:39.570Z,45.29
2018-03-23T05:03:39.598Z,45.28
2018-03-23T05:04:39.591Z,45.32
2018-03-23T05:05:39.586Z,45.3
2018-03-23T05:06:39.595Z,45.3
2018-03-23T05:07:39.637Z,45.34
2018-03-23T05:08:39.593Z,45.32
2018-03-23T05:09:39.593Z,45.32
2018-03-23T05:10:39.590Z,45.36
2018-03-23T05:11:39.580Z,45.35
2018-03-23T05:12:39.624Z,45.36
2018-03-23T05:13:39.573Z,45.39
2018-03-23T05:14:39.581Z,45.36
2018-03-23T05:15:39.617Z,45.38
2018-03-23T05:16:39.580Z,45.4
2018-03-23T05:17:39.608Z,45.38
2018-03-23T05:18:39.578Z,45.41
2018-03-23T05:19:39.601Z,45.44
2018-03-23T05:20:39.585Z,45.43
2018-03-23T05:21:39.602Z,45.44
2018-03-23T05:22:39.884Z,45.46
2018-03-23T05:23:39.583Z,45.47
2018-03-23T05:24:39.595Z,45.47
2018-03-23T05:25:39.606Z,45.49
2018-03-23T05:26:39.575Z,45.5
2018-03-23T05:27:39.603Z,45.5
2018-03-23T05:28:39.561Z,45.53
2018-03-23T05:29:39.574Z,45.52
2018-03-23T05:30:39.587Z,45.53
2018-03-23T05:31:39.635Z,45.56
2018-03-23T05:32:39.607Z,45.56
2018-03-23T05:33:39.597Z,45.57
2018-03-23T05:34:39.576Z,45.6
2018-03-23T05:35:39.587Z,45.6
2018-03-23T05:36:39.596Z,45.6
2018-03-23T05:37:39.617Z,45.63
2018-03-23T05:38:39.578Z,45.63
2018-03-23T05:39:39.583Z,45.63
2018-03-23T05:40:39.596Z,45.67
2018-03-23T05:41:39.580Z,45.66
2018-03-23T05:42:39.559Z,45.67
2018-03-23T05:43:39.579Z,45.69
2018-03-23T05:44:39.577Z,45.68
2018-03-23T05:45:39.594Z,45.69
2018-03-23T05:46:39.595Z,45.73
2018-03-23T05:47:39.580Z,45.71
2018-03-23T05:48:39.585Z,45.72
2018-03-23T05:49:39.585Z,45.75
2018-03-23T05:50:39.578Z,45.74
2018-03-23T05:51:39.575Z,45.75
2018-03-23T05:52:39.571Z,45.78
2018-03-23T05:53:39.563Z,45.77
2018-03-23T05:54:39.563Z,45.78
2018-03-23T05:55:39.582Z,45.8
2018-03-23T05:56:39.557Z,45.79
2018-03-23T05:57:39.565Z,45.79
2018-03-23T05:58:39.599Z,45.83
2018-03-23T05:59:39.578Z,45.82
2018-03-23T06:00:39.584Z,45.82
2018-03-23T06:01:39.584Z,45.84
2018-03-23T06:02:39.587Z,45.84
2018-03-23T06:03:39.597Z,45.85
2018-03-23T06:04:39.752Z,45.86
2018-03-23T06:05:39.563Z,45.86
2018-03-23T06:06:39.519Z,45.86
2018-03-23T06:07:39.544Z,45.88
2018-03-23T06:08:39.572Z,45.89
2018-03-23T06:09:39.580Z,45.89
2018-03-23T06:10:39.568Z,45.91
2018-03-23T06:11:39.535Z,45.9
2018-03-23T06:12:39.562Z,45.9
2018-03-23T06:13:39.576Z,45.94
2018-03-23T06:14:39.567Z,45.92
2018-03-23T06:15:39.578Z,45.92
2018-03-23T06:16:39.580Z,45.94
2018-03-23T06:17:39.668Z,45.95
2018-03-23T06:18:39.586Z,45.95
2018-03-23T06:19:39.578Z,45.97
2018-03-23T06:20:39.587Z,45.97
2018-03-23T06:21:39.588Z,45.97
2018-03-23T06:22:39.586Z,45.99
2018-03-23T06:23:39.570Z,45.99
2018-03-23T06:24:39.543Z,45.99
2018-03-23T06:25:39.600Z,46
2018-03-23T06:26:39.567Z,46.01
2018-03-23T06:27:39.544Z,46
2018-03-23T06:28:39.551Z,46.02
2018-03-23T06:29:39.572Z,46.01
2018-03-23T06:30:39.554Z,46.02
2018-03-23T06:31:39.557Z,46.04
2018-03-23T06:32:39.569Z,46.03
2018-03-23T06:33:39.552Z,46.03
2018-03-23T06:34:39.552Z,46.06
2018-03-23T06:35:39.564Z,46.05
2018-03-23T06:36:39.536Z,46.05
2018-03-23T06:37:39.570Z,46.07
2018-03-23T06:38:39.554Z,46.05
2018-03-23T06:39:39.562Z,46.06
2018-03-23T06:40:39.537Z,46.08
2018-03-23T06:41:39.542Z,46.07
2018-03-23T06:42:39.554Z,46.07
2018-03-23T06:43:39.566Z,46.1
2018-03-23T06:44:39.550Z,46.09
2018-03-23T06:45:39.564Z,46.09
2018-03-23T06:46:39.542Z,46.11
2018-03-23T06:47:39.540Z,46.1
2018-03-23T06:48:39.572Z,46.1
2018-03-23T06:49:39.577Z,46.12
2018-03-23T06:50:39.546Z,46.1
2018-03-23T06:51:39.535Z,46.11
2018-03-23T06:52:39.580Z,46.13
2018-03-23T06:53:39.541Z,46.12
2018-03-23T06:54:39.534Z,46.12
2018-03-23T06:55:39.606Z,46.14
2018-03-23T06:56:39.550Z,46.14
2018-03-23T06:57:39.547Z,46.14
2018-03-23T06:58:39.568Z,46.16
2018-03-23T06:59:39.569Z,46.16
2018-03-23T07:00:39.569Z,46.15
2018-03-23T07:01:39.574Z,46.18
2018-03-23T07:02:39.535Z,46.16
2018-03-23T07:03:39.541Z,46.17
2018-03-23T07:04:39.541Z,46.19
2018-03-23T07:05:39.553Z,46.17
2018-03-23T07:06:39.548Z,46.18
2018-03-23T07:07:39.537Z,46.19
2018-03-23T07:08:39.551Z,46.17
2018-03-23T07:09:39.565Z,46.18
2018-03-23T07:10:39.556Z,46.16
2018-03-23T07:11:39.540Z,46.15
2018-03-23T07:12:39.552Z,46.15
2018-03-23T07:13:39.557Z,46.18
2018-03-23T07:14:39.536Z,46.17
2018-03-23T07:15:39.556Z,46.16
2018-03-23T07:16:39.582Z,46.17
2018-03-23T07:17:39.557Z,46.17
2018-03-23T07:18:39.558Z,46.11
2018-03-23T07:19:39.555Z,46.15
2018-03-23T07:20:39.528Z,46.16
2018-03-23T07:21:39.577Z,46.16
2018-03-23T07:22:39.549Z,46.19
2018-03-23T07:23:39.540Z,46.16
2018-03-23T07:24:39.542Z,46.13
2018-03-23T07:25:39.550Z,46.16
2018-03-23T07:26:39.586Z,46.16
2018-03-23T07:27:39.562Z,46.16
2018-03-23T07:28:39.560Z,46.18
2018-03-23T07:29:39.549Z,46.16
2018-03-23T07:30:39.550Z,46.18
2018-03-23T07:31:39.571Z,46.19
2018-03-23T07:32:39.534Z,46.18
2018-03-23T07:33:39.557Z,46.18
2018-03-23T07:34:39.536Z,46.2
2018-03-23T07:35:39.544Z,46.18
2018-03-23T07:36:39.548Z,46.18
2018-03-23T07:37:39.583Z,46.2
2018-03-23T07:38:39.550Z,46.18
2018-03-23T07:39:39.562Z,46.17
2018-03-23T07:40:39.553Z,46.2
2018-03-23T07:41:39.541Z,46.19
2018-03-23T07:42:39.555Z,46.2
2018-03-23T07:43:39.541Z,46.21
2018-03-23T07:44:39.561Z,46.18
2018-03-23T07:45:39.552Z,46.18
2018-03-23T07:46:39.568Z,46.21
2018-03-23T07:47:39.540Z,46.2
2018-03-23T07:48:39.551Z,46.19
2018-03-23T07:49:39.554Z,46.22
2018-03-23T07:50:39.503Z,46.18
2018-03-23T07:51:39.565Z,46.2
2018-03-23T07:52:39.543Z,46.22
2018-03-23T07:53:39.539Z,46.21
2018-03-23T07:54:39.550Z,46.21
2018-03-23T07:55:39.529Z,46.23
2018-03-23T07:56:39.519Z,46.19
2018-03-23T07:57:39.556Z,46.16
2018-03-23T07:58:39.539Z,46.2
2018-03-23T07:59:39.494Z,46.2
2018-03-23T08:00:39.550Z,46.19
2018-03-23T08:01:39.530Z,46.21
2018-03-23T08:02:39.510Z,46.2
2018-03-23T08:03:39.515Z,46.21
2018-03-23T08:04:39.551Z,46.24
2018-03-23T08:05:39.517Z,46.24
2018-03-23T08:06:39.529Z,46.23
2018-03-23T08:07:39.548Z,46.26
2018-03-23T08:08:39.533Z,46.24
2018-03-23T08:09:39.524Z,46.25
2018-03-23T08:10:39.511Z,46.28
2018-03-23T08:11:39.522Z,46.27
2018-03-23T08:12:39.541Z,46.27
2018-03-23T08:13:39.509Z,46.29
2018-03-23T08:14:39.534Z,46.28
2018-03-23T08:15:39.512Z,46.28
2018-03-23T08:16:39.546Z,46.3
2018-03-23T08:17:39.529Z,46.28
2018-03-23T08:18:39.648Z,46.28
2018-03-23T08:19:39.547Z,46.3
2018-03-23T08:20:39.528Z,46.29
2018-03-23T08:21:39.544Z,46.3
2018-03-23T08:22:39.527Z,46.32
2018-03-23T08:23:39.508Z,46.31
2018-03-23T08:24:39.574Z,46.31
2018-03-23T08:25:39.537Z,46.32
2018-03-23T08:26:39.521Z,46.31
2018-03-23T08:27:39.556Z,46.31
2018-03-23T08:28:39.530Z,46.33
2018-03-23T08:29:39.532Z,46.32
2018-03-23T08:30:39.515Z,46.33
2018-03-23T08:31:39.539Z,46.34
2018-03-23T08:32:39.544Z,46.33
2018-03-23T08:33:39.514Z,46.33
2018-03-23T08:34:39.537Z,46.36
2018-03-23T08:35:39.509Z,46.34
2018-03-23T08:36:39.541Z,46.33
2018-03-23T08:37:39.553Z,46.35
2018-03-23T08:38:39.538Z,46.34
2018-03-23T08:39:39.507Z,46.35
2018-03-23T08:40:39.521Z,46.37
2018-03-23T08:41:39.516Z,46.36
2018-03-23T08:42:39.560Z,46.36
2018-03-23T08:43:39.547Z,46.37
2018-03-23T08:44:39.574Z,46.36
2018-03-23T08:45:39.527Z,46.37
2018-03-23T08:46:39.527Z,46.37
2018-03-23T08:47:39.526Z,46.37
2018-03-23T08:48:39.525Z,46.37
2018-03-23T08:49:39.532Z,46.39
2018-03-23T08:50:39.493Z,46.38
2018-03-23T08:51:39.505Z,46.37
2018-03-23T08:52:39.543Z,46.39
2018-03-23T08:53:39.506Z,46.39
2018-03-23T08:54:39.477Z,46.38
2018-03-23T08:55:39.504Z,46.39
2018-03-23T08:56:39.514Z,46.39
2018-03-23T08:57:39.588Z,46.39
2018-03-23T08:58:39.506Z,46.41
2018-03-23T08:59:39.511Z,46.4
2018-03-23T09:00:39.527Z,46.39
2018-03-23T09:01:39.511Z,46.41
2018-03-23T09:02:39.530Z,46.39
2018-03-23T09:03:39.525Z,46.4
2018-03-23T09:04:39.506Z,46.42
2018-03-23T09:05:39.524Z,46.41
2018-03-23T09:06:39.512Z,46.41
2018-03-23T09:07:39.524Z,46.43
2018-03-23T09:08:39.501Z,46.42
2018-03-23T09:09:39.584Z,46.41
2018-03-23T09:10:39.499Z,46.44
2018-03-23T09:11:39.490Z,46.42
2018-03-23T09:12:39.493Z,46.42
2018-03-23T09:13:39.514Z,46.43
2018-03-23T09:14:39.514Z,46.43
2018-03-23T09:15:39.524Z,46.42
2018-03-23T09:16:39.570Z,46.45
2018-03-23T09:17:39.513Z,46.44
2018-03-23T09:18:39.479Z,46.44
2018-03-23T09:19:39.492Z,46.46
2018-03-23T09:20:39.488Z,46.45
2018-03-23T09:21:39.505Z,46.44
2018-03-23T09:22:39.503Z,46.45
2018-03-23T09:23:39.499Z,46.45
2018-03-23T09:24:39.510Z,46.44
2018-03-23T09:25:39.502Z,46.47
2018-03-23T09:26:39.500Z,46.46
2018-03-23T09:27:39.485Z,46.46
2018-03-23T09:28:39.496Z,46.47
2018-03-23T09:29:39.496Z,46.46
2018-03-23T09:30:39.514Z,46.46
2018-03-23T09:31:39.487Z,46.48
2018-03-23T09:32:39.501Z,46.47
2018-03-23T09:33:39.511Z,46.47
2018-03-23T09:34:39.509Z,46.49
2018-03-23T09:35:39.498Z,46.48
2018-03-23T09:36:39.514Z,46.47
2018-03-23T09:37:39.488Z,46.49
2018-03-23T09:38:39.501Z,46.48
2018-03-23T09:39:39.521Z,46.47
2018-03-23T09:40:39.488Z,46.5
2018-03-23T09:41:39.503Z,46.49
2018-03-23T09:42:39.516Z,46.48
2018-03-23T09:43:39.487Z,46.51
2018-03-23T09:44:39.490Z,46.5
2018-03-23T09:45:39.471Z,46.49
2018-03-23T09:46:39.500Z,46.51
2018-03-23T09:47:39.480Z,46.5
2018-03-23T09:48:39.502Z,46.49
2018-03-23T09:49:39.528Z,46.51
2018-03-23T09:50:39.482Z,46.5
2018-03-23T09:51:39.529Z,46.5
2018-03-23T09:52:39.512Z,46.52
2018-03-23T09:53:39.501Z,46.51
2018-03-23T09:54:39.490Z,46.5
2018-03-23T09:55:39.494Z,46.52
2018-03-23T09:56:39.500Z,46.5
2018-03-23T09:57:39.494Z,46.5
2018-03-23T09:58:39.497Z,46.53
2018-03-23T09:59:39.482Z,46.52
2018-03-23T10:00:39.489Z,46.51
2018-03-23T10:01:39.486Z,46.53
2018-03-23T10:02:39.488Z,46.51
2018-03-23T10:03:39.769Z,46.51
2018-03-23T10:04:39.484Z,46.53
2018-03-23T10:05:39.476Z,46.51
2018-03-23T10:06:39.467Z,46.51
2018-03-23T10:07:39.489Z,46.53
2018-03-23T10:08:39.503Z,46.5
2018-03-23T10:09:39.506Z,46.5
2018-03-23T10:10:39.473Z,46.51
2018-03-23T10:11:39.491Z,46.5
2018-03-23T10:12:39.501Z,46.51
2018-03-23T10:13:39.525Z,46.52
2018-03-23T10:14:39.486Z,46.52
2018-03-23T10:15:39.506Z,46.5
2018-03-23T10:16:39.458Z,46.53
2018-03-23T10:17:39.495Z,46.52
2018-03-23T10:18:39.461Z,46.51
2018-03-23T10:19:39.574Z,46.53
2018-03-23T10:20:39.489Z,46.52
2018-03-23T10:21:39.544Z,46.51
2018-03-23T10:22:39.480Z,46.54
2018-03-23T10:23:39.484Z,46.52
2018-03-23T10:24:39.482Z,46.51
2018-03-23T10:25:39.497Z,46.54
2018-03-23T10:26:39.492Z,46.51
2018-03-23T10:27:39.489Z,46.51
2018-03-23T10:28:39.560Z,46.54
2018-03-23T10:29:39.482Z,46.53
2018-03-23T10:30:39.469Z,46.53
2018-03-23T10:31:39.495Z,46.55
2018-03-23T10:32:39.481Z,46.52
2018-03-23T10:33:39.635Z,46.53
2018-03-23T10:34:39.496Z,46.54
2018-03-23T10:35:39.486Z,46.52
2018-03-23T10:36:39.485Z,46.52
2018-03-23T10:37:39.503Z,46.55
2018-03-23T10:38:39.521Z,46.54
2018-03-23T10:39:39.500Z,46.53
2018-03-23T10:40:39.498Z,46.55
2018-03-23T10:41:39.491Z,46.54
2018-03-23T10:42:39.478Z,46.55
2018-03-23T10:43:39.474Z,46.56
2018-03-23T10:44:39.470Z,46.55
2018-03-23T10:45:39.480Z,46.55
2018-03-23T10:46:39.488Z,46.55
2018-03-23T10:47:39.474Z,46.54
2018-03-23T10:48:39.463Z,46.55
2018-03-23T10:49:39.482Z,46.58
2018-03-23T10:50:39.482Z,46.55
2018-03-23T10:51:39.491Z,46.55
2018-03-23T10:52:39.503Z,46.57
2018-03-23T10:53:39.471Z,46.56
2018-03-23T10:54:39.480Z,46.56
2018-03-23T10:55:39.493Z,46.58
2018-03-23T10:56:39.464Z,46.57
2018-03-23T10:57:39.451Z,46.57
2018-03-23T10:58:39.473Z,46.58
2018-03-23T10:59:39.474Z,46.56
2018-03-23T11:00:39.495Z,46.56
2018-03-23T11:01:39.472Z,46.58
2018-03-23T11:02:39.477Z,46.57
2018-03-23T11:03:39.507Z,46.57
2018-03-23T11:04:39.473Z,46.58
2018-03-23T11:05:39.467Z,46.57
2018-03-23T11:06:39.461Z,46.56
2018-03-23T11:07:39.448Z,46.58
2018-03-23T11:08:39.471Z,46.56
2018-03-23T11:09:39.488Z,46.56
2018-03-23T11:10:39.491Z,46.59
2018-03-23T11:11:39.484Z,46.57
2018-03-23T11:12:39.464Z,46.57
2018-03-23T11:13:39.479Z,46.58
2018-03-23T11:14:39.466Z,46.56
2018-03-23T11:15:39.465Z,46.57
2018-03-23T11:16:39.450Z,46.58
2018-03-23T11:17:39.458Z,46.57
2018-03-23T11:18:39.493Z,46.57
2018-03-23T11:19:39.465Z,46.59
2018-03-23T11:20:39.484Z,46.57
2018-03-23T11:21:39.461Z,46.56
2018-03-23T11:22:39.464Z,46.59
2018-03-23T11:23:39.461Z,46.56
2018-03-23T11:24:39.461Z,46.56
2018-03-23T11:25:39.454Z,46.57
2018-03-23T11:26:39.454Z,46.57
2018-03-23T11:27:39.419Z,46.57
2018-03-23T11:28:39.468Z,46.6
2018-03-23T11:29:39.454Z,46.59
2018-03-23T11:30:39.443Z,46.56
2018-03-23T11:31:39.425Z,46.59
2018-03-23T11:32:39.460Z,46.58
2018-03-23T11:33:39.458Z,46.58
2018-03-23T11:34:39.461Z,46.59
2018-03-23T11:35:39.456Z,46.57
2018-03-23T11:36:39.452Z,46.57
2018-03-23T11:37:39.452Z,46.6
2018-03-23T11:38:39.465Z,46.59
2018-03-23T11:39:39.449Z,46.58
2018-03-23T11:40:39.469Z,46.6
2018-03-23T11:41:39.455Z,46.59
2018-03-23T11:42:39.465Z,46.59
2018-03-23T11:43:39.454Z,46.6
2018-03-23T11:44:39.457Z,46.6
2018-03-23T11:45:39.447Z,46.59
2018-03-23T11:46:39.450Z,46.61
2018-03-23T11:47:39.451Z,46.6
2018-03-23T11:48:39.466Z,46.54
2018-03-23T11:49:39.459Z,46.54
2018-03-23T11:50:39.487Z,46.52
2018-03-23T11:51:39.456Z,46.54
2018-03-23T11:52:39.474Z,46.58
2018-03-23T11:53:39.462Z,46.56
2018-03-23T11:54:39.444Z,46.56
2018-03-23T11:55:39.470Z,46.59
2018-03-23T11:56:39.420Z,46.57
2018-03-23T11:57:39.458Z,46.58
2018-03-23T11:58:39.424Z,46.61
2018-03-23T11:59:39.459Z,46.59
2018-03-23T12:00:39.442Z,46.59
2018-03-23T12:01:39.437Z,46.6
2018-03-23T12:02:39.441Z,46.61
2018-03-23T12:03:39.444Z,46.59
2018-03-23T12:04:39.448Z,46.61
2018-03-23T12:05:39.456Z,46.6
2018-03-23T12:06:39.478Z,46.59
2018-03-23T12:07:39.452Z,46.62
2018-03-23T12:08:39.456Z,46.61
2018-03-23T12:09:39.457Z,46.61
2018-03-23T12:10:39.459Z,46.62
2018-03-23T12:11:39.454Z,46.6
2018-03-23T12:12:39.450Z,46.6
2018-03-23T12:13:39.424Z,46.62
2018-03-23T12:14:39.445Z,46.61
2018-03-23T12:15:39.471Z,46.6
2018-03-23T12:16:39.450Z,46.62
2018-03-23T12:17:39.465Z,46.61
2018-03-23T12:18:39.464Z,46.61
2018-03-23T12:19:39.449Z,46.62
2018-03-23T12:20:39.543Z,46.61
2018-03-23T12:21:39.494Z,46.6
2018-03-23T12:22:39.445Z,46.62
2018-03-23T12:23:39.449Z,46.61
2018-03-23T12:24:39.462Z,46.6
2018-03-23T12:25:39.439Z,46.62
2018-03-23T12:26:39.422Z,46.61
2018-03-23T12:27:39.446Z,46.61
2018-03-23T12:28:39.446Z,46.63
2018-03-23T12:29:39.430Z,46.61
2018-03-23T12:30:39.482Z,46.62
2018-03-23T12:31:39.461Z,46.63
2018-03-23T12:32:39.438Z,46.62
2018-03-23T12:33:39.434Z,46.63
2018-03-23T12:34:39.457Z,46.63
2018-03-23T12:35:39.442Z,46.62
2018-03-23T12:36:39.439Z,46.62
2018-03-23T12:37:39.448Z,46.63
2018-03-23T12:38:39.445Z,46.62
2018-03-23T12:39:39.450Z,46.61
2018-03-23T12:40:39.470Z,46.63
2018-03-23T12:41:39.441Z,46.61
2018-03-23T12:42:39.429Z,46.61
2018-03-23T12:43:39.443Z,46.62
2018-03-23T12:44:39.441Z,46.62
2018-03-23T12:45:39.434Z,46.62
2018-03-23T12:46:39.435Z,46.63
2018-03-23T12:47:39.464Z,46.62
2018-03-23T12:48:39.429Z,46.62
2018-03-23T12:49:39.440Z,46.63
2018-03-23T12:50:39.445Z,46.61
2018-03-23T12:51:39.434Z,46.61
2018-03-23T12:52:39.432Z,46.62
2018-03-23T12:53:39.437Z,46.61
2018-03-23T12:54:39.431Z,46.61
2018-03-23T12:55:39.451Z,46.63